sensor_id;sensor_type;location;lat;lon;timestamp;P1;durP1;ratioP1;P2;durP2;ratioP2
78406;SDS011;67692;51.074;-1.790;2023-10-13T00:01:01;4.18;;;0.63;;
78406;SDS011;67692;51.074;-1.790;2023-10-13T00:03:31;5.35;;;0.90;;
78406;SDS011;67692;51.074;-1.790;2023-10-13T00:05:57;3.20;;;1.10;;
78406;SDS011;67692;51.074;-1.790;2023-10-13T00:08:27;4.22;;;0.90;;
78406;SDS011;67692;51.074;-1.790;2023-10-13T00:10:55;4.50;;;1.23;;
78406;SDS011;67692;51.074;-1.790;2023-10-13T00:13:25;6.63;;;1.73;;
78406;SDS011;67692;51.074;-1.790;2023-10-13T00:15:53;10.02;;;1.77;;
78406;SDS011;67692;51.074;-1.790;2023-10-13T00:18:23;8.93;;;1.80;;
78406;SDS011;67692;51.074;-1.790;2023-10-13T00:20:53;8.73;;;2.15;;
78406;SDS011;67692;51.074;-1.790;2023-10-13T00:23:21;8.52;;;2.03;;
78406;SDS011;67692;51.074;-1.790;2023-10-13T00:25:52;7.70;;;2.53;;
78406;SDS011;67692;51.074;-1.790;2023-10-13T00:28:24;10.77;;;3.20;;
78406;SDS011;67692;51.074;-1.790;2023-10-13T00:30:51;11.68;;;2.60;;
78406;SDS011;67692;51.074;-1.790;2023-10-13T00:33:25;12.98;;;2.55;;
78406;SDS011;67692;51.074;-1.790;2023-10-13T00:35:52;8.90;;;2.55;;
78406;SDS011;67692;51.074;-1.790;2023-10-13T00:38:23;16.20;;;4.40;;
78406;SDS011;67692;51.074;-1.790;2023-10-13T00:40:49;15.43;;;3.85;;
78406;SDS011;67692;51.074;-1.790;2023-10-13T00:51:00;15.05;;;3.28;;
78406;SDS011;67692;51.074;-1.790;2023-10-13T00:53:32;13.02;;;3.40;;
78406;SDS011;67692;51.074;-1.790;2023-10-13T00:55:58;16.40;;;3.88;;
78406;SDS011;67692;51.074;-1.790;2023-10-13T00:58:31;12.73;;;3.63;;
78406;SDS011;67692;51.074;-1.790;2023-10-13T01:00:59;20.23;;;3.80;;
78406;SDS011;67692;51.074;-1.790;2023-10-13T01:03:42;13.65;;;3.97;;
78406;SDS011;67692;51.074;-1.790;2023-10-13T01:06:11;10.40;;;3.92;;
78406;SDS011;67692;51.074;-1.790;2023-10-13T01:08:39;18.90;;;4.15;;
78406;SDS011;67692;51.074;-1.790;2023-10-13T01:11:04;18.50;;;4.68;;
78406;SDS011;67692;51.074;-1.790;2023-10-13T01:13:33;18.00;;;4.55;;
78406;SDS011;67692;51.074;-1.790;2023-10-13T01:16:01;20.77;;;5.13;;
78406;SDS011;67692;51.074;-1.790;2023-10-13T01:18:32;16.20;;;4.35;;
78406;SDS011;67692;51.074;-1.790;2023-10-13T01:21:04;16.05;;;5.28;;
78406;SDS011;67692;51.074;-1.790;2023-10-13T01:23:32;18.88;;;4.40;;
78406;SDS011;67692;51.074;-1.790;2023-10-13T01:26:03;24.95;;;4.85;;
78406;SDS011;67692;51.074;-1.790;2023-10-13T01:28:31;16.83;;;4.93;;
78406;SDS011;67692;51.074;-1.790;2023-10-13T01:31:09;21.58;;;4.75;;
78406;SDS011;67692;51.074;-1.790;2023-10-13T01:33:37;24.77;;;4.85;;
78406;SDS011;67692;51.074;-1.790;2023-10-13T01:36:03;14.25;;;4.85;;
78406;SDS011;67692;51.074;-1.790;2023-10-13T01:38:35;21.80;;;5.40;;
78406;SDS011;67692;51.074;-1.790;2023-10-13T01:41:04;27.35;;;5.63;;
78406;SDS011;67692;51.074;-1.790;2023-10-13T01:43:33;23.70;;;5.35;;
78406;SDS011;67692;51.074;-1.790;2023-10-13T01:45:59;26.27;;;5.07;;
78406;SDS011;67692;51.074;-1.790;2023-10-13T01:48:28;22.38;;;5.32;;
78406;SDS011;67692;51.074;-1.790;2023-10-13T01:50:57;23.70;;;5.47;;
78406;SDS011;67692;51.074;-1.790;2023-10-13T01:53:27;24.50;;;6.65;;
78406;SDS011;67692;51.074;-1.790;2023-10-13T01:55:55;22.23;;;5.75;;
78406;SDS011;67692;51.074;-1.790;2023-10-13T01:58:23;20.77;;;5.72;;
78406;SDS011;67692;51.074;-1.790;2023-10-13T02:00:51;21.95;;;5.47;;
78406;SDS011;67692;51.074;-1.790;2023-10-13T02:03:18;26.52;;;5.97;;
78406;SDS011;67692;51.074;-1.790;2023-10-13T02:05:44;27.15;;;6.40;;
78406;SDS011;67692;51.074;-1.790;2023-10-13T02:08:13;31.17;;;6.35;;
78406;SDS011;67692;51.074;-1.790;2023-10-13T02:10:44;17.80;;;5.80;;
78406;SDS011;67692;51.074;-1.790;2023-10-13T02:13:16;25.40;;;6.45;;
78406;SDS011;67692;51.074;-1.790;2023-10-13T02:15:43;23.40;;;7.18;;
78406;SDS011;67692;51.074;-1.790;2023-10-13T02:18:10;25.38;;;6.03;;
78406;SDS011;67692;51.074;-1.790;2023-10-13T02:20:38;22.20;;;6.15;;
78406;SDS011;67692;51.074;-1.790;2023-10-13T02:23:08;27.70;;;6.43;;
78406;SDS011;67692;51.074;-1.790;2023-10-13T02:25:35;26.65;;;6.10;;
78406;SDS011;67692;51.074;-1.790;2023-10-13T02:28:08;28.88;;;5.55;;
78406;SDS011;67692;51.074;-1.790;2023-10-13T02:30:38;28.80;;;6.68;;
78406;SDS011;67692;51.074;-1.790;2023-10-13T02:33:04;27.52;;;6.10;;
78406;SDS011;67692;51.074;-1.790;2023-10-13T02:35:31;23.98;;;6.13;;
78406;SDS011;67692;51.074;-1.790;2023-10-13T02:38:09;23.83;;;6.93;;
78406;SDS011;67692;51.074;-1.790;2023-10-13T02:40:38;29.60;;;5.88;;
78406;SDS011;67692;51.074;-1.790;2023-10-13T02:43:04;34.92;;;7.10;;
78406;SDS011;67692;51.074;-1.790;2023-10-13T02:45:31;27.33;;;7.28;;
78406;SDS011;67692;51.074;-1.790;2023-10-13T02:47:59;23.05;;;6.38;;
78406;SDS011;67692;51.074;-1.790;2023-10-13T02:53:10;32.40;;;6.05;;
78406;SDS011;67692;51.074;-1.790;2023-10-13T02:55:38;26.13;;;5.65;;
78406;SDS011;67692;51.074;-1.790;2023-10-13T02:58:05;22.63;;;6.05;;
78406;SDS011;67692;51.074;-1.790;2023-10-13T03:00:31;25.02;;;6.15;;
78406;SDS011;67692;51.074;-1.790;2023-10-13T03:03:00;25.02;;;6.07;;
78406;SDS011;67692;51.074;-1.790;2023-10-13T03:05:26;16.40;;;5.28;;
78406;SDS011;67692;51.074;-1.790;2023-10-13T03:10:22;24.40;;;5.75;;
78406;SDS011;67692;51.074;-1.790;2023-10-13T03:12:54;30.08;;;5.88;;
78406;SDS011;67692;51.074;-1.790;2023-10-13T03:15:20;30.15;;;5.95;;
78406;SDS011;67692;51.074;-1.790;2023-10-13T03:17:54;21.27;;;5.82;;
78406;SDS011;67692;51.074;-1.790;2023-10-13T03:20:21;22.90;;;5.95;;
78406;SDS011;67692;51.074;-1.790;2023-10-13T03:22:52;30.63;;;5.72;;
78406;SDS011;67692;51.074;-1.790;2023-10-13T03:25:19;24.75;;;6.15;;
78406;SDS011;67692;51.074;-1.790;2023-10-13T03:30:29;25.17;;;6.13;;
78406;SDS011;67692;51.074;-1.790;2023-10-13T03:33:00;20.60;;;6.82;;
78406;SDS011;67692;51.074;-1.790;2023-10-13T03:35:33;24.48;;;5.93;;
78406;SDS011;67692;51.074;-1.790;2023-10-13T03:38:04;21.08;;;5.47;;
78406;SDS011;67692;51.074;-1.790;2023-10-13T03:40:39;27.45;;;6.13;;
78406;SDS011;67692;51.074;-1.790;2023-10-13T03:43:06;27.75;;;6.38;;
78406;SDS011;67692;51.074;-1.790;2023-10-13T03:45:35;24.88;;;6.28;;
78406;SDS011;67692;51.074;-1.790;2023-10-13T03:48:05;24.30;;;6.30;;
78406;SDS011;67692;51.074;-1.790;2023-10-13T03:50:36;23.98;;;6.47;;
78406;SDS011;67692;51.074;-1.790;2023-10-13T03:53:11;26.88;;;6.07;;
78406;SDS011;67692;51.074;-1.790;2023-10-13T03:55:38;33.65;;;6.00;;
78406;SDS011;67692;51.074;-1.790;2023-10-13T03:58:05;25.60;;;5.88;;
78406;SDS011;67692;51.074;-1.790;2023-10-13T04:00:35;22.60;;;6.57;;
78406;SDS011;67692;51.074;-1.790;2023-10-13T04:03:04;31.02;;;6.40;;
78406;SDS011;67692;51.074;-1.790;2023-10-13T04:05:35;24.10;;;5.78;;
78406;SDS011;67692;51.074;-1.790;2023-10-13T04:08:09;22.63;;;6.35;;
78406;SDS011;67692;51.074;-1.790;2023-10-13T04:10:54;22.05;;;5.80;;
78406;SDS011;67692;51.074;-1.790;2023-10-13T04:13:39;28.23;;;6.60;;
78406;SDS011;67692;51.074;-1.790;2023-10-13T04:16:23;24.77;;;5.72;;
78406;SDS011;67692;51.074;-1.790;2023-10-13T04:19:03;29.02;;;5.80;;
78406;SDS011;67692;51.074;-1.790;2023-10-13T04:21:46;29.95;;;5.47;;
78406;SDS011;67692;51.074;-1.790;2023-10-13T04:24:23;24.35;;;5.63;;
78406;SDS011;67692;51.074;-1.790;2023-10-13T04:27:04;26.45;;;5.60;;
78406;SDS011;67692;51.074;-1.790;2023-10-13T04:29:48;20.17;;;5.32;;
78406;SDS011;67692;51.074;-1.790;2023-10-13T04:32:26;24.13;;;6.15;;
78406;SDS011;67692;51.074;-1.790;2023-10-13T04:34:57;26.27;;;5.43;;
78406;SDS011;67692;51.074;-1.790;2023-10-13T04:37:35;31.75;;;5.93;;
78406;SDS011;67692;51.074;-1.790;2023-10-13T04:40:15;24.33;;;5.68;;
78406;SDS011;67692;51.074;-1.790;2023-10-13T04:42:44;33.33;;;6.95;;
78406;SDS011;67692;51.074;-1.790;2023-10-13T04:45:15;30.88;;;5.50;;
78406;SDS011;67692;51.074;-1.790;2023-10-13T04:48:04;25.40;;;5.53;;
78406;SDS011;67692;51.074;-1.790;2023-10-13T04:50:43;21.60;;;5.15;;
78406;SDS011;67692;51.074;-1.790;2023-10-13T04:53:13;29.70;;;5.40;;
78406;SDS011;67692;51.074;-1.790;2023-10-13T04:55:54;24.83;;;6.07;;
78406;SDS011;67692;51.074;-1.790;2023-10-13T04:58:41;23.60;;;5.80;;
78406;SDS011;67692;51.074;-1.790;2023-10-13T05:01:32;25.55;;;5.03;;
78406;SDS011;67692;51.074;-1.790;2023-10-13T05:04:12;33.30;;;6.35;;
78406;SDS011;67692;51.074;-1.790;2023-10-13T05:06:55;26.92;;;6.07;;
78406;SDS011;67692;51.074;-1.790;2023-10-13T05:09:40;23.30;;;5.85;;
78406;SDS011;67692;51.074;-1.790;2023-10-13T05:12:24;34.53;;;6.18;;
78406;SDS011;67692;51.074;-1.790;2023-10-13T05:15:08;39.17;;;6.47;;
78406;SDS011;67692;51.074;-1.790;2023-10-13T05:17:52;24.40;;;4.95;;
78406;SDS011;67692;51.074;-1.790;2023-10-13T05:20:36;28.83;;;6.07;;
78406;SDS011;67692;51.074;-1.790;2023-10-13T05:23:20;39.25;;;8.60;;
78406;SDS011;67692;51.074;-1.790;2023-10-13T05:26:05;35.10;;;7.75;;
78406;SDS011;67692;51.074;-1.790;2023-10-13T05:28:49;37.05;;;7.13;;
78406;SDS011;67692;51.074;-1.790;2023-10-13T05:31:33;34.92;;;6.45;;
78406;SDS011;67692;51.074;-1.790;2023-10-13T05:34:19;37.45;;;6.50;;
78406;SDS011;67692;51.074;-1.790;2023-10-13T05:37:03;30.45;;;6.25;;
78406;SDS011;67692;51.074;-1.790;2023-10-13T05:39:47;25.85;;;5.72;;
78406;SDS011;67692;51.074;-1.790;2023-10-13T05:42:32;30.10;;;6.50;;
78406;SDS011;67692;51.074;-1.790;2023-10-13T05:45:16;36.92;;;7.55;;
78406;SDS011;67692;51.074;-1.790;2023-10-13T05:48:02;27.38;;;5.00;;
78406;SDS011;67692;51.074;-1.790;2023-10-13T05:50:36;33.08;;;5.53;;
78406;SDS011;67692;51.074;-1.790;2023-10-13T05:53:44;28.55;;;7.22;;
78406;SDS011;67692;51.074;-1.790;2023-10-13T05:56:28;33.17;;;5.75;;
78406;SDS011;67692;51.074;-1.790;2023-10-13T05:59:12;26.40;;;5.40;;
78406;SDS011;67692;51.074;-1.790;2023-10-13T06:01:57;27.05;;;5.70;;
78406;SDS011;67692;51.074;-1.790;2023-10-13T06:04:41;38.13;;;5.80;;
78406;SDS011;67692;51.074;-1.790;2023-10-13T06:07:25;25.55;;;5.45;;
78406;SDS011;67692;51.074;-1.790;2023-10-13T06:10:09;24.67;;;5.55;;
78406;SDS011;67692;51.074;-1.790;2023-10-13T06:12:53;30.88;;;5.70;;
78406;SDS011;67692;51.074;-1.790;2023-10-13T06:15:38;25.30;;;5.82;;
78406;SDS011;67692;51.074;-1.790;2023-10-13T06:18:21;37.38;;;7.07;;
78406;SDS011;67692;51.074;-1.790;2023-10-13T06:21:06;32.00;;;6.57;;
78406;SDS011;67692;51.074;-1.790;2023-10-13T06:23:50;28.35;;;5.93;;
78406;SDS011;67692;51.074;-1.790;2023-10-13T06:26:34;38.33;;;6.60;;
78406;SDS011;67692;51.074;-1.790;2023-10-13T06:29:18;35.67;;;6.88;;
78406;SDS011;67692;51.074;-1.790;2023-10-13T06:31:46;38.42;;;7.72;;
78406;SDS011;67692;51.074;-1.790;2023-10-13T06:34:12;32.45;;;6.05;;
78406;SDS011;67692;51.074;-1.790;2023-10-13T06:36:41;26.40;;;6.97;;
78406;SDS011;67692;51.074;-1.790;2023-10-13T06:39:11;33.05;;;6.45;;
78406;SDS011;67692;51.074;-1.790;2023-10-13T06:42:00;32.10;;;6.63;;
78406;SDS011;67692;51.074;-1.790;2023-10-13T06:44:27;33.25;;;6.70;;
78406;SDS011;67692;51.074;-1.790;2023-10-13T06:46:58;35.03;;;7.00;;
78406;SDS011;67692;51.074;-1.790;2023-10-13T06:49:29;31.88;;;6.45;;
78406;SDS011;67692;51.074;-1.790;2023-10-13T06:51:57;30.80;;;6.47;;
78406;SDS011;67692;51.074;-1.790;2023-10-13T06:54:25;27.05;;;5.30;;
78406;SDS011;67692;51.074;-1.790;2023-10-13T06:56:53;26.55;;;5.68;;
78406;SDS011;67692;51.074;-1.790;2023-10-13T06:59:20;33.67;;;5.90;;
78406;SDS011;67692;51.074;-1.790;2023-10-13T07:01:51;25.73;;;6.03;;
78406;SDS011;67692;51.074;-1.790;2023-10-13T07:04:19;25.00;;;5.88;;
78406;SDS011;67692;51.074;-1.790;2023-10-13T07:06:47;18.52;;;4.85;;
78406;SDS011;67692;51.074;-1.790;2023-10-13T07:09:14;25.02;;;6.00;;
78406;SDS011;67692;51.074;-1.790;2023-10-13T07:12:05;36.22;;;6.22;;
78406;SDS011;67692;51.074;-1.790;2023-10-13T07:14:32;25.83;;;5.07;;
78406;SDS011;67692;51.074;-1.790;2023-10-13T07:17:00;31.02;;;5.32;;
78406;SDS011;67692;51.074;-1.790;2023-10-13T07:19:31;23.83;;;6.45;;
78406;SDS011;67692;51.074;-1.790;2023-10-13T07:21:59;27.17;;;6.05;;
78406;SDS011;67692;51.074;-1.790;2023-10-13T07:24:44;28.42;;;6.75;;
78406;SDS011;67692;51.074;-1.790;2023-10-13T07:27:13;33.83;;;8.05;;
78406;SDS011;67692;51.074;-1.790;2023-10-13T07:29:47;21.67;;;6.03;;
78406;SDS011;67692;51.074;-1.790;2023-10-13T07:32:20;28.95;;;5.97;;
78406;SDS011;67692;51.074;-1.790;2023-10-13T07:34:53;28.30;;;8.75;;
78406;SDS011;67692;51.074;-1.790;2023-10-13T07:37:22;40.15;;;7.10;;
78406;SDS011;67692;51.074;-1.790;2023-10-13T07:39:54;27.73;;;7.18;;
78406;SDS011;67692;51.074;-1.790;2023-10-13T07:42:23;35.97;;;7.38;;
78406;SDS011;67692;51.074;-1.790;2023-10-13T07:44:51;22.88;;;7.47;;
78406;SDS011;67692;51.074;-1.790;2023-10-13T07:47:20;28.25;;;6.43;;
78406;SDS011;67692;51.074;-1.790;2023-10-13T07:49:49;39.10;;;8.82;;
78406;SDS011;67692;51.074;-1.790;2023-10-13T07:52:17;47.30;;;7.68;;
78406;SDS011;67692;51.074;-1.790;2023-10-13T07:55:01;27.17;;;7.72;;
78406;SDS011;67692;51.074;-1.790;2023-10-13T07:57:36;27.85;;;6.57;;
78406;SDS011;67692;51.074;-1.790;2023-10-13T08:02:56;26.85;;;6.25;;
78406;SDS011;67692;51.074;-1.790;2023-10-13T08:05:33;24.55;;;5.40;;
78406;SDS011;67692;51.074;-1.790;2023-10-13T08:08:09;26.13;;;6.68;;
78406;SDS011;67692;51.074;-1.790;2023-10-13T08:10:39;27.20;;;6.95;;
78406;SDS011;67692;51.074;-1.790;2023-10-13T08:13:07;30.70;;;7.00;;
78406;SDS011;67692;51.074;-1.790;2023-10-13T08:15:39;38.50;;;7.72;;
78406;SDS011;67692;51.074;-1.790;2023-10-13T08:18:12;35.25;;;8.45;;
78406;SDS011;67692;51.074;-1.790;2023-10-13T08:20:42;33.28;;;8.23;;
78406;SDS011;67692;51.074;-1.790;2023-10-13T08:23:10;37.58;;;7.47;;
78406;SDS011;67692;51.074;-1.790;2023-10-13T08:25:45;45.13;;;9.32;;
78406;SDS011;67692;51.074;-1.790;2023-10-13T08:28:26;38.05;;;9.90;;
78406;SDS011;67692;51.074;-1.790;2023-10-13T08:31:09;43.03;;;8.02;;
78406;SDS011;67692;51.074;-1.790;2023-10-13T08:33:47;33.13;;;8.40;;
78406;SDS011;67692;51.074;-1.790;2023-10-13T08:36:14;34.65;;;8.57;;
78406;SDS011;67692;51.074;-1.790;2023-10-13T08:38:57;38.05;;;8.68;;
78406;SDS011;67692;51.074;-1.790;2023-10-13T08:41:41;34.05;;;7.72;;
78406;SDS011;67692;51.074;-1.790;2023-10-13T08:44:35;35.35;;;7.97;;
78406;SDS011;67692;51.074;-1.790;2023-10-13T08:47:03;35.40;;;9.07;;
78406;SDS011;67692;51.074;-1.790;2023-10-13T08:49:32;31.58;;;8.07;;
78406;SDS011;67692;51.074;-1.790;2023-10-13T08:52:05;38.38;;;9.40;;
78406;SDS011;67692;51.074;-1.790;2023-10-13T08:54:54;36.78;;;7.63;;
78406;SDS011;67692;51.074;-1.790;2023-10-13T08:58:00;34.30;;;8.55;;
78406;SDS011;67692;51.074;-1.790;2023-10-13T09:00:37;31.80;;;7.22;;
78406;SDS011;67692;51.074;-1.790;2023-10-13T09:03:37;34.35;;;8.35;;
78406;SDS011;67692;51.074;-1.790;2023-10-13T09:06:08;34.70;;;7.70;;
78406;SDS011;67692;51.074;-1.790;2023-10-13T09:08:40;31.38;;;7.95;;
78406;SDS011;67692;51.074;-1.790;2023-10-13T09:11:32;34.70;;;8.07;;
78406;SDS011;67692;51.074;-1.790;2023-10-13T09:14:14;29.00;;;7.20;;
78406;SDS011;67692;51.074;-1.790;2023-10-13T09:17:00;30.75;;;7.07;;
78406;SDS011;67692;51.074;-1.790;2023-10-13T09:19:33;34.10;;;7.25;;
78406;SDS011;67692;51.074;-1.790;2023-10-13T09:22:19;33.58;;;7.13;;
78406;SDS011;67692;51.074;-1.790;2023-10-13T09:24:51;34.08;;;7.53;;
78406;SDS011;67692;51.074;-1.790;2023-10-13T09:27:19;20.42;;;6.28;;
78406;SDS011;67692;51.074;-1.790;2023-10-13T09:29:54;34.67;;;7.40;;
78406;SDS011;67692;51.074;-1.790;2023-10-13T09:32:21;40.70;;;8.35;;
78406;SDS011;67692;51.074;-1.790;2023-10-13T09:34:46;26.35;;;6.68;;
78406;SDS011;67692;51.074;-1.790;2023-10-13T09:37:15;30.63;;;6.78;;
78406;SDS011;67692;51.074;-1.790;2023-10-13T09:39:45;33.92;;;7.28;;
78406;SDS011;67692;51.074;-1.790;2023-10-13T09:42:16;36.45;;;7.35;;
78406;SDS011;67692;51.074;-1.790;2023-10-13T09:44:45;29.30;;;7.28;;
78406;SDS011;67692;51.074;-1.790;2023-10-13T09:47:21;28.42;;;6.95;;
78406;SDS011;67692;51.074;-1.790;2023-10-13T09:49:54;23.67;;;7.72;;
78406;SDS011;67692;51.074;-1.790;2023-10-13T09:52:28;36.78;;;8.13;;
78406;SDS011;67692;51.074;-1.790;2023-10-13T09:55:04;28.92;;;6.95;;
78406;SDS011;67692;51.074;-1.790;2023-10-13T09:57:39;35.33;;;6.40;;
78406;SDS011;67692;51.074;-1.790;2023-10-13T10:00:13;35.67;;;9.07;;
78406;SDS011;67692;51.074;-1.790;2023-10-13T10:03:15;30.33;;;8.20;;
78406;SDS011;67692;51.074;-1.790;2023-10-13T10:05:55;40.00;;;7.78;;
78406;SDS011;67692;51.074;-1.790;2023-10-13T10:08:28;35.58;;;7.60;;
78406;SDS011;67692;51.074;-1.790;2023-10-13T10:11:00;36.95;;;6.00;;
78406;SDS011;67692;51.074;-1.790;2023-10-13T10:13:46;27.50;;;6.78;;
78406;SDS011;67692;51.074;-1.790;2023-10-13T10:16:28;36.28;;;7.85;;
78406;SDS011;67692;51.074;-1.790;2023-10-13T10:19:03;32.05;;;7.32;;
78406;SDS011;67692;51.074;-1.790;2023-10-13T10:21:33;32.65;;;6.70;;
78406;SDS011;67692;51.074;-1.790;2023-10-13T10:24:00;34.30;;;6.03;;
78406;SDS011;67692;51.074;-1.790;2023-10-13T10:26:38;24.42;;;6.68;;
78406;SDS011;67692;51.074;-1.790;2023-10-13T10:29:16;29.10;;;5.68;;
78406;SDS011;67692;51.074;-1.790;2023-10-13T10:31:44;21.90;;;5.32;;
78406;SDS011;67692;51.074;-1.790;2023-10-13T10:34:12;26.63;;;6.03;;
78406;SDS011;67692;51.074;-1.790;2023-10-13T10:36:39;23.15;;;5.40;;
78406;SDS011;67692;51.074;-1.790;2023-10-13T10:39:08;32.53;;;5.93;;
78406;SDS011;67692;51.074;-1.790;2023-10-13T10:41:37;21.73;;;6.18;;
78406;SDS011;67692;51.074;-1.790;2023-10-13T10:44:10;22.52;;;5.43;;
78406;SDS011;67692;51.074;-1.790;2023-10-13T10:46:41;27.45;;;4.82;;
78406;SDS011;67692;51.074;-1.790;2023-10-13T10:49:18;25.73;;;4.97;;
78406;SDS011;67692;51.074;-1.790;2023-10-13T10:51:52;31.27;;;6.05;;
78406;SDS011;67692;51.074;-1.790;2023-10-13T10:54:25;19.33;;;4.07;;
78406;SDS011;67692;51.074;-1.790;2023-10-13T10:56:56;26.52;;;6.38;;
78406;SDS011;67692;51.074;-1.790;2023-10-13T10:59:35;21.20;;;4.45;;
78406;SDS011;67692;51.074;-1.790;2023-10-13T11:02:03;26.00;;;5.22;;
78406;SDS011;67692;51.074;-1.790;2023-10-13T11:04:33;25.75;;;5.03;;
78406;SDS011;67692;51.074;-1.790;2023-10-13T11:07:00;29.63;;;4.80;;
78406;SDS011;67692;51.074;-1.790;2023-10-13T11:09:28;20.63;;;3.83;;
78406;SDS011;67692;51.074;-1.790;2023-10-13T11:12:08;35.88;;;4.88;;
78406;SDS011;67692;51.074;-1.790;2023-10-13T11:14:40;16.85;;;3.42;;
78406;SDS011;67692;51.074;-1.790;2023-10-13T11:17:08;16.75;;;4.50;;
78406;SDS011;67692;51.074;-1.790;2023-10-13T11:19:47;21.05;;;3.65;;
78406;SDS011;67692;51.074;-1.790;2023-10-13T11:22:14;30.98;;;4.03;;
78406;SDS011;67692;51.074;-1.790;2023-10-13T11:24:54;23.63;;;4.68;;
78406;SDS011;67692;51.074;-1.790;2023-10-13T11:30:09;23.33;;;3.40;;
78406;SDS011;67692;51.074;-1.790;2023-10-13T11:32:39;20.15;;;3.28;;
78406;SDS011;67692;51.074;-1.790;2023-10-13T11:35:08;24.52;;;3.35;;
78406;SDS011;67692;51.074;-1.790;2023-10-13T11:37:45;21.90;;;3.22;;
78406;SDS011;67692;51.074;-1.790;2023-10-13T11:40:21;18.17;;;2.92;;
78406;SDS011;67692;51.074;-1.790;2023-10-13T11:43:08;20.35;;;2.65;;
78406;SDS011;67692;51.074;-1.790;2023-10-13T11:45:39;10.88;;;2.10;;
78406;SDS011;67692;51.074;-1.790;2023-10-13T11:48:19;14.43;;;2.90;;
78406;SDS011;67692;51.074;-1.790;2023-10-13T11:51:00;13.65;;;1.95;;
78406;SDS011;67692;51.074;-1.790;2023-10-13T11:53:32;17.63;;;3.10;;
78406;SDS011;67692;51.074;-1.790;2023-10-13T11:55:59;14.88;;;1.90;;
78406;SDS011;67692;51.074;-1.790;2023-10-13T11:58:26;15.73;;;2.33;;
78406;SDS011;67692;51.074;-1.790;2023-10-13T12:00:53;11.32;;;2.17;;
78406;SDS011;67692;51.074;-1.790;2023-10-13T12:03:33;13.80;;;2.17;;
78406;SDS011;67692;51.074;-1.790;2023-10-13T12:06:18;14.60;;;3.55;;
78406;SDS011;67692;51.074;-1.790;2023-10-13T12:08:57;14.13;;;2.00;;
78406;SDS011;67692;51.074;-1.790;2023-10-13T12:11:37;16.40;;;2.65;;
78406;SDS011;67692;51.074;-1.790;2023-10-13T12:14:06;18.73;;;2.47;;
78406;SDS011;67692;51.074;-1.790;2023-10-13T12:16:42;18.02;;;2.83;;
78406;SDS011;67692;51.074;-1.790;2023-10-13T12:19:13;13.52;;;2.50;;
78406;SDS011;67692;51.074;-1.790;2023-10-13T12:21:43;16.48;;;3.00;;
78406;SDS011;67692;51.074;-1.790;2023-10-13T12:24:10;13.73;;;2.40;;
78406;SDS011;67692;51.074;-1.790;2023-10-13T12:26:47;10.48;;;2.05;;
78406;SDS011;67692;51.074;-1.790;2023-10-13T12:29:20;11.13;;;2.25;;
78406;SDS011;67692;51.074;-1.790;2023-10-13T12:31:53;17.05;;;2.65;;
78406;SDS011;67692;51.074;-1.790;2023-10-13T12:34:32;16.50;;;2.47;;
78406;SDS011;67692;51.074;-1.790;2023-10-13T12:37:24;15.13;;;3.33;;
78406;SDS011;67692;51.074;-1.790;2023-10-13T12:40:04;14.60;;;2.20;;
78406;SDS011;67692;51.074;-1.790;2023-10-13T12:43:00;15.27;;;2.03;;
78406;SDS011;67692;51.074;-1.790;2023-10-13T12:45:45;19.98;;;2.50;;
78406;SDS011;67692;51.074;-1.790;2023-10-13T12:48:30;14.18;;;2.80;;
78406;SDS011;67692;51.074;-1.790;2023-10-13T12:51:16;14.52;;;1.95;;
78406;SDS011;67692;51.074;-1.790;2023-10-13T12:53:48;14.48;;;2.13;;
78406;SDS011;67692;51.074;-1.790;2023-10-13T12:56:15;22.27;;;2.45;;
78406;SDS011;67692;51.074;-1.790;2023-10-13T12:58:41;13.18;;;2.38;;
78406;SDS011;67692;51.074;-1.790;2023-10-13T13:01:16;13.43;;;2.38;;
78406;SDS011;67692;51.074;-1.790;2023-10-13T13:03:45;18.77;;;2.83;;
78406;SDS011;67692;51.074;-1.790;2023-10-13T13:06:15;16.27;;;2.92;;
78406;SDS011;67692;51.074;-1.790;2023-10-13T13:08:42;19.73;;;2.92;;
78406;SDS011;67692;51.074;-1.790;2023-10-13T13:11:10;16.35;;;4.22;;
78406;SDS011;67692;51.074;-1.790;2023-10-13T13:13:37;16.65;;;2.25;;
78406;SDS011;67692;51.074;-1.790;2023-10-13T13:16:03;18.70;;;3.05;;
78406;SDS011;67692;51.074;-1.790;2023-10-13T13:18:30;14.73;;;3.30;;
78406;SDS011;67692;51.074;-1.790;2023-10-13T13:20:58;18.98;;;2.30;;
78406;SDS011;67692;51.074;-1.790;2023-10-13T13:23:25;15.60;;;2.17;;
78406;SDS011;67692;51.074;-1.790;2023-10-13T13:25:52;17.73;;;2.88;;
78406;SDS011;67692;51.074;-1.790;2023-10-13T13:28:23;18.05;;;2.17;;
78406;SDS011;67692;51.074;-1.790;2023-10-13T13:30:49;19.33;;;1.70;;
78406;SDS011;67692;51.074;-1.790;2023-10-13T13:33:19;12.63;;;1.65;;
78406;SDS011;67692;51.074;-1.790;2023-10-13T13:38:19;8.65;;;1.50;;
78406;SDS011;67692;51.074;-1.790;2023-10-13T13:40:47;12.30;;;1.83;;
78406;SDS011;67692;51.074;-1.790;2023-10-13T13:43:15;7.55;;;1.25;;
78406;SDS011;67692;51.074;-1.790;2023-10-13T13:45:57;9.45;;;1.55;;
78406;SDS011;67692;51.074;-1.790;2023-10-13T13:48:26;9.73;;;1.50;;
78406;SDS011;67692;51.074;-1.790;2023-10-13T13:50:53;11.88;;;1.42;;
78406;SDS011;67692;51.074;-1.790;2023-10-13T13:53:21;9.75;;;1.30;;
78406;SDS011;67692;51.074;-1.790;2023-10-13T13:55:53;7.43;;;1.08;;
78406;SDS011;67692;51.074;-1.790;2023-10-13T13:58:20;10.60;;;1.27;;
78406;SDS011;67692;51.074;-1.790;2023-10-13T14:00:46;14.13;;;1.42;;
78406;SDS011;67692;51.074;-1.790;2023-10-13T14:03:15;6.78;;;1.08;;
78406;SDS011;67692;51.074;-1.790;2023-10-13T14:08:24;9.60;;;1.35;;
78406;SDS011;67692;51.074;-1.790;2023-10-13T14:10:50;7.38;;;1.10;;
78406;SDS011;67692;51.074;-1.790;2023-10-13T14:13:34;7.50;;;1.20;;
78406;SDS011;67692;51.074;-1.790;2023-10-13T14:16:14;10.55;;;1.40;;
78406;SDS011;67692;51.074;-1.790;2023-10-13T14:18:44;9.35;;;1.17;;
78406;SDS011;67692;51.074;-1.790;2023-10-13T14:21:11;8.93;;;1.38;;
78406;SDS011;67692;51.074;-1.790;2023-10-13T14:23:42;11.50;;;1.60;;
78406;SDS011;67692;51.074;-1.790;2023-10-13T14:26:11;12.25;;;1.60;;
78406;SDS011;67692;51.074;-1.790;2023-10-13T14:28:38;9.13;;;1.23;;
78406;SDS011;67692;51.074;-1.790;2023-10-13T14:31:15;10.35;;;1.38;;
78406;SDS011;67692;51.074;-1.790;2023-10-13T14:33:45;8.13;;;1.15;;
78406;SDS011;67692;51.074;-1.790;2023-10-13T14:36:12;10.25;;;2.45;;
78406;SDS011;67692;51.074;-1.790;2023-10-13T14:38:39;15.32;;;2.38;;
78406;SDS011;67692;51.074;-1.790;2023-10-13T14:41:09;15.60;;;1.95;;
78406;SDS011;67692;51.074;-1.790;2023-10-13T14:43:36;10.65;;;1.40;;
78406;SDS011;67692;51.074;-1.790;2023-10-13T14:46:02;13.82;;;1.85;;
78406;SDS011;67692;51.074;-1.790;2023-10-13T14:48:34;15.60;;;1.88;;
78406;SDS011;67692;51.074;-1.790;2023-10-13T14:51:05;8.65;;;1.50;;
78406;SDS011;67692;51.074;-1.790;2023-10-13T14:53:37;10.75;;;1.40;;
78406;SDS011;67692;51.074;-1.790;2023-10-13T14:56:08;11.32;;;1.48;;
78406;SDS011;67692;51.074;-1.790;2023-10-13T14:58:35;10.13;;;1.40;;
78406;SDS011;67692;51.074;-1.790;2023-10-13T15:01:10;10.55;;;1.63;;
78406;SDS011;67692;51.074;-1.790;2023-10-13T15:03:37;9.75;;;1.60;;
78406;SDS011;67692;51.074;-1.790;2023-10-13T15:06:04;12.57;;;1.58;;
78406;SDS011;67692;51.074;-1.790;2023-10-13T15:08:31;10.73;;;1.75;;
78406;SDS011;67692;51.074;-1.790;2023-10-13T15:10:59;11.13;;;1.58;;
78406;SDS011;67692;51.074;-1.790;2023-10-13T15:13:37;11.50;;;1.77;;
78406;SDS011;67692;51.074;-1.790;2023-10-13T15:16:12;8.52;;;1.60;;
78406;SDS011;67692;51.074;-1.790;2023-10-13T15:18:40;11.95;;;1.63;;
78406;SDS011;67692;51.074;-1.790;2023-10-13T15:21:07;6.65;;;1.13;;
78406;SDS011;67692;51.074;-1.790;2023-10-13T15:23:34;10.45;;;1.73;;
78406;SDS011;67692;51.074;-1.790;2023-10-13T15:26:07;8.35;;;1.38;;